sensor_id;sensor_type;location;lat;lon;timestamp;pressure;altitude;pressure_sealevel;temperature;humidity
44531;BME280;30240;47.418;0.700;2022-10-16T00:01:10;100001.953125;;;15.47;99.99
44531;BME280;30240;47.418;0.700;2022-10-16T00:03:34;100014.12353515625;;;15.4;99.99
44531;BME280;30240;47.418;0.700;2022-10-16T00:06:00;100019.37255859375;;;15.37;99.99
44531;BME280;30240;47.418;0.700;2022-10-16T00:08:24;100023.96850585938;;;15.39;99.99
44531;BME280;30240;47.418;0.700;2022-10-16T00:10:49;100023.96850585938;;;15.39;99.99
44531;BME280;30240;47.418;0.700;2022-10-16T00:13:17;100031.48193359375;;;15.34;99.99
44531;BME280;30240;47.418;0.700;2022-10-16T00:15:39;100040.12451171875;;;15.32;99.99
44531;BME280;30240;47.418;0.700;2022-10-16T00:18:04;100048.96850585938;;;15.32;99.99
44531;BME280;30240;47.418;0.700;2022-10-16T00:20:29;100056.70166015625;;;15.33;99.99
44531;BME280;30240;47.418;0.700;2022-10-16T00:22:54;100056.70166015625;;;15.33;99.99
44531;BME280;30240;47.418;0.700;2022-10-16T00:25:19;100047.54028320312;;;15.34;99.99
44531;BME280;30240;47.418;0.700;2022-10-16T00:27:44;100044.17114257812;;;15.37;99.99
44531;BME280;30240;47.418;0.700;2022-10-16T00:30:09;100048.62670898438;;;15.37;99.99
44531;BME280;30240;47.418;0.700;2022-10-16T00:32:34;100051.59301757812;;;15.42;99.99
44531;BME280;30240;47.418;0.700;2022-10-16T00:34:59;100051.59301757812;;;15.42;99.99
44531;BME280;30240;47.418;0.700;2022-10-16T00:37:24;100053.03344726562;;;15.43;99.99
44531;BME280;30240;47.418;0.700;2022-10-16T00:39:49;100053.59497070312;;;15.4;99.99
44531;BME280;30240;47.418;0.700;2022-10-16T00:42:15;100055.517578125;;;15.34;99.99
44531;BME280;30240;47.418;0.700;2022-10-16T00:44:44;100063.86108398438;;;15.33;99.99
44531;BME280;30240;47.418;0.700;2022-10-16T00:47:04;100069.15893554688;;;15.33;99.99
44531;BME280;30240;47.418;0.700;2022-10-16T00:49:29;100069.15893554688;;;15.33;99.99
44531;BME280;30240;47.418;0.700;2022-10-16T00:51:53;100070.8740234375;;;15.33;99.99
44531;BME280;30240;47.418;0.700;2022-10-16T00:54:26;100068.12744140625;;;15.36;99.99
44531;BME280;30240;47.418;0.700;2022-10-16T00:56:44;100068.89038085938;;;15.32;99.99
44531;BME280;30240;47.418;0.700;2022-10-16T00:59:14;100067.24853515625;;;15.4;99.99
44531;BME280;30240;47.418;0.700;2022-10-16T01:01:34;100067.24853515625;;;15.4;99.99
44531;BME280;30240;47.418;0.700;2022-10-16T01:03:58;100074.365234375;;;15.34;99.99
44531;BME280;30240;47.418;0.700;2022-10-16T01:06:28;100068.88427734375;;;15.39;99.99
44531;BME280;30240;47.418;0.700;2022-10-16T01:06:32;100068.88427734375;;;15.39;99.99
44531;BME280;30240;47.418;0.700;2022-10-16T01:09:03;100069.482421875;;;15.32;99.99
44531;BME280;30240;47.418;0.700;2022-10-16T01:11:17;100068.359375;;;15.34;99.99
44531;BME280;30240;47.418;0.700;2022-10-16T01:13:42;100068.359375;;;15.34;99.99
44531;BME280;30240;47.418;0.700;2022-10-16T01:16:07;100063.87329101562;;;15.36;99.99
44531;BME280;30240;47.418;0.700;2022-10-16T01:16:13;100063.87329101562;;;15.36;99.99
44531;BME280;30240;47.418;0.700;2022-10-16T01:18:34;100068.10913085938;;;15.36;99.99
44531;BME280;30240;47.418;0.700;2022-10-16T01:20:56;100057.62329101562;;;15.44;99.99
44531;BME280;30240;47.418;0.700;2022-10-16T01:23:31;100048.20556640625;;;15.34;99.99
44531;BME280;30240;47.418;0.700;2022-10-16T01:23:36;100048.20556640625;;;15.34;99.99
44531;BME280;30240;47.418;0.700;2022-10-16T01:25:59;100048.20556640625;;;15.34;99.99
44531;BME280;30240;47.418;0.700;2022-10-16T01:26:18;100048.20556640625;;;15.34;99.99
44531;BME280;30240;47.418;0.700;2022-10-16T01:28:10;100034.77172851562;;;15.4;99.99
44531;BME280;30240;47.418;0.700;2022-10-16T01:30:36;100040.5029296875;;;15.43;99.99
44531;BME280;30240;47.418;0.700;2022-10-16T01:33:01;100026.09252929688;;;15.49;99.99
44531;BME280;30240;47.418;0.700;2022-10-16T01:35:26;100019.42138671875;;;15.54;99.99
44531;BME280;30240;47.418;0.700;2022-10-16T01:37:53;100019.42138671875;;;15.54;99.99
44531;BME280;30240;47.418;0.700;2022-10-16T01:40:16;100022.71728515625;;;15.4;99.99
44531;BME280;30240;47.418;0.700;2022-10-16T01:42:40;100028.60717773438;;;15.49;99.99
44531;BME280;30240;47.418;0.700;2022-10-16T01:45:05;100033.203125;;;15.46;99.99
44531;BME280;30240;47.418;0.700;2022-10-16T01:47:29;100032.72705078125;;;15.47;99.99
44531;BME280;30240;47.418;0.700;2022-10-16T01:49:55;100032.72705078125;;;15.47;99.99
44531;BME280;30240;47.418;0.700;2022-10-16T01:52:21;100038.671875;;;15.53;99.99
44531;BME280;30240;47.418;0.700;2022-10-16T01:54:46;100028.96118164062;;;15.62;99.99
44531;BME280;30240;47.418;0.700;2022-10-16T01:57:10;100035.0341796875;;;15.5;99.99
44531;BME280;30240;47.418;0.700;2022-10-16T01:59:38;100030.09643554688;;;15.64;99.99
44531;BME280;30240;47.418;0.700;2022-10-16T02:02:00;100030.09643554688;;;15.64;99.99
44531;BME280;30240;47.418;0.700;2022-10-16T02:04:31;100039.34326171875;;;15.51;99.99
44531;BME280;30240;47.418;0.700;2022-10-16T02:04:34;100039.34326171875;;;15.51;99.99
44531;BME280;30240;47.418;0.700;2022-10-16T02:06:49;100048.72436523438;;;15.57;99.99
44531;BME280;30240;47.418;0.700;2022-10-16T02:09:14;100047.20458984375;;;15.62;99.99
44531;BME280;30240;47.418;0.700;2022-10-16T02:11:39;100051.05590820312;;;15.58;99.99
44531;BME280;30240;47.418;0.700;2022-10-16T02:14:05;100051.05590820312;;;15.58;99.99
44531;BME280;30240;47.418;0.700;2022-10-16T02:16:33;100045.12329101562;;;15.53;99.99
44531;BME280;30240;47.418;0.700;2022-10-16T02:18:54;100034.96704101562;;;15.54;99.99
44531;BME280;30240;47.418;0.700;2022-10-16T02:21:22;100038.98315429688;;;15.58;99.99
44531;BME280;30240;47.418;0.700;2022-10-16T02:23:47;100046.6796875;;;15.54;99.99
44531;BME280;30240;47.418;0.700;2022-10-16T02:26:12;100028.92456054688;;;15.57;99.99
44531;BME280;30240;47.418;0.700;2022-10-16T02:28:38;100028.92456054688;;;15.57;99.99
44531;BME280;30240;47.418;0.700;2022-10-16T02:31:02;100032.53173828125;;;15.53;99.99
44531;BME280;30240;47.418;0.700;2022-10-16T02:33:24;100029.85229492188;;;15.55;99.99
44531;BME280;30240;47.418;0.700;2022-10-16T02:35:50;100029.26635742188;;;15.57;99.99
44531;BME280;30240;47.418;0.700;2022-10-16T02:38:15;100029.0283203125;;;15.58;99.99
44531;BME280;30240;47.418;0.700;2022-10-16T02:40:39;100029.0283203125;;;15.58;99.99
44531;BME280;30240;47.418;0.700;2022-10-16T02:43:04;100022.9248046875;;;15.51;99.99
44531;BME280;30240;47.418;0.700;2022-10-16T02:45:29;100037.060546875;;;15.6;99.99
44531;BME280;30240;47.418;0.700;2022-10-16T02:47:53;100048.18725585938;;;15.57;99.99
44531;BME280;30240;47.418;0.700;2022-10-16T02:50:19;100048.4375;;;15.58;99.99
44531;BME280;30240;47.418;0.700;2022-10-16T02:52:44;100048.4375;;;15.58;99.99
44531;BME280;30240;47.418;0.700;2022-10-16T02:55:08;100029.74853515625;;;15.64;99.99
44531;BME280;30240;47.418;0.700;2022-10-16T02:57:33;100039.5751953125;;;15.64;99.99
44531;BME280;30240;47.418;0.700;2022-10-16T02:59:59;100053.515625;;;15.6;99.99
44531;BME280;30240;47.418;0.700;2022-10-16T03:02:24;100048.91967773438;;;15.62;99.99
44531;BME280;30240;47.418;0.700;2022-10-16T03:04:48;100048.91967773438;;;15.62;99.99
44531;BME280;30240;47.418;0.700;2022-10-16T03:07:14;100055.11474609375;;;15.71;99.99
44531;BME280;30240;47.418;0.700;2022-10-16T03:09:39;100046.18530273438;;;15.67;99.99
44531;BME280;30240;47.418;0.700;2022-10-16T03:12:04;100049.0966796875;;;15.67;99.99
44531;BME280;30240;47.418;0.700;2022-10-16T03:14:28;100057.20825195312;;;15.6;99.99
44531;BME280;30240;47.418;0.700;2022-10-16T03:16:53;100057.20825195312;;;15.6;99.99
44531;BME280;30240;47.418;0.700;2022-10-16T03:19:19;100058.69750976562;;;15.62;99.99
44531;BME280;30240;47.418;0.700;2022-10-16T03:21:44;100037.59155273438;;;15.61;99.99
44531;BME280;30240;47.418;0.700;2022-10-16T03:24:09;100038.18969726562;;;15.61;99.99
44531;BME280;30240;47.418;0.700;2022-10-16T03:26:34;100043.17016601562;;;15.78;99.99
44531;BME280;30240;47.418;0.700;2022-10-16T03:28:58;100043.17016601562;;;15.78;99.99
44531;BME280;30240;47.418;0.700;2022-10-16T03:31:23;100053.01513671875;;;15.72;99.99
44531;BME280;30240;47.418;0.700;2022-10-16T03:33:48;100064.39208984375;;;15.68;99.99
44531;BME280;30240;47.418;0.700;2022-10-16T03:36:13;100072.36938476562;;;15.64;99.99
44531;BME280;30240;47.418;0.700;2022-10-16T03:38:38;100070.9228515625;;;15.67;99.99
44531;BME280;30240;47.418;0.700;2022-10-16T03:41:04;100070.9228515625;;;15.67;99.99
44531;BME280;30240;47.418;0.700;2022-10-16T03:43:29;100069.75708007812;;;15.58;99.99
44531;BME280;30240;47.418;0.700;2022-10-16T03:45:53;100064.42260742188;;;15.51;99.99
44531;BME280;30240;47.418;0.700;2022-10-16T03:48:19;100066.68090820312;;;15.54;99.99
44531;BME280;30240;47.418;0.700;2022-10-16T03:50:43;100049.62768554688;;;15.67;99.99
44531;BME280;30240;47.418;0.700;2022-10-16T03:53:09;100047.65625;;;15.69;99.99
44531;BME280;30240;47.418;0.700;2022-10-16T03:55:34;100047.65625;;;15.69;99.99
44531;BME280;30240;47.418;0.700;2022-10-16T03:57:58;100042.38891601562;;;15.71;99.99
44531;BME280;30240;47.418;0.700;2022-10-16T04:00:23;100058.39233398438;;;15.58;99.99
44531;BME280;30240;47.418;0.700;2022-10-16T04:02:48;100064.09912109375;;;15.54;99.99
44531;BME280;30240;47.418;0.700;2022-10-16T04:05:13;100060.40649414062;;;15.54;99.99
44531;BME280;30240;47.418;0.700;2022-10-16T04:07:39;100060.40649414062;;;15.54;99.99
44531;BME280;30240;47.418;0.700;2022-10-16T04:10:04;100061.68823242188;;;15.67;99.99
44531;BME280;30240;47.418;0.700;2022-10-16T04:12:29;100062.6953125;;;15.78;99.99
44531;BME280;30240;47.418;0.700;2022-10-16T04:14:53;100075.09155273438;;;15.54;99.99
44531;BME280;30240;47.418;0.700;2022-10-16T04:17:19;100067.76733398438;;;15.51;99.99
44531;BME280;30240;47.418;0.700;2022-10-16T04:19:44;100067.76733398438;;;15.51;99.99
44531;BME280;30240;47.418;0.700;2022-10-16T04:22:09;100052.685546875;;;15.54;99.99
44531;BME280;30240;47.418;0.700;2022-10-16T04:24:33;100066.40625;;;15.53;99.99
44531;BME280;30240;47.418;0.700;2022-10-16T04:26:58;100072.998046875;;;15.53;99.99
44531;BME280;30240;47.418;0.700;2022-10-16T04:29:23;100071.39282226562;;;15.53;99.99
44531;BME280;30240;47.418;0.700;2022-10-16T04:31:49;100071.39282226562;;;15.53;99.99
44531;BME280;30240;47.418;0.700;2022-10-16T04:34:14;100059.7900390625;;;15.64;99.99
44531;BME280;30240;47.418;0.700;2022-10-16T04:36:38;100055.3466796875;;;15.71;99.99
44531;BME280;30240;47.418;0.700;2022-10-16T04:39:03;100053.96728515625;;;15.53;99.99
44531;BME280;30240;47.418;0.700;2022-10-16T04:41:28;100057.91625976562;;;15.6;99.99
44531;BME280;30240;47.418;0.700;2022-10-16T04:43:53;100057.91625976562;;;15.6;99.99
44531;BME280;30240;47.418;0.700;2022-10-16T04:46:18;100060.65673828125;;;15.6;99.99
44531;BME280;30240;47.418;0.700;2022-10-16T04:48:43;100062.98217773438;;;15.78;99.99
44531;BME280;30240;47.418;0.700;2022-10-16T04:51:09;100071.90551757812;;;15.69;99.99
44531;BME280;30240;47.418;0.700;2022-10-16T04:53:33;100073.46801757812;;;15.75;99.99
44531;BME280;30240;47.418;0.700;2022-10-16T04:55:58;100073.46801757812;;;15.75;99.99
44531;BME280;30240;47.418;0.700;2022-10-16T04:58:23;100071.3134765625;;;15.69;99.99
44531;BME280;30240;47.418;0.700;2022-10-16T05:00:48;100083.8134765625;;;15.84;99.99
44531;BME280;30240;47.418;0.700;2022-10-16T05:03:13;100092.85888671875;;;15.86;99.99
44531;BME280;30240;47.418;0.700;2022-10-16T05:05:42;100102.65502929688;;;15.82;99.99
44531;BME280;30240;47.418;0.700;2022-10-16T05:08:04;100102.65502929688;;;15.82;99.99
44531;BME280;30240;47.418;0.700;2022-10-16T05:10:28;100109.73510742188;;;15.77;99.99
44531;BME280;30240;47.418;0.700;2022-10-16T05:12:53;100115.7470703125;;;15.77;99.99
44531;BME280;30240;47.418;0.700;2022-10-16T05:15:18;100114.42260742188;;;15.78;99.99
44531;BME280;30240;47.418;0.700;2022-10-16T05:17:44;100116.68701171875;;;15.82;99.99
44531;BME280;30240;47.418;0.700;2022-10-16T05:20:09;100116.68701171875;;;15.82;99.99
44531;BME280;30240;47.418;0.700;2022-10-16T05:22:34;100119.49462890625;;;15.74;99.99
44531;BME280;30240;47.418;0.700;2022-10-16T05:24:59;100121.37451171875;;;15.74;99.99
44531;BME280;30240;47.418;0.700;2022-10-16T05:27:23;100120.79467773438;;;15.75;99.99
44531;BME280;30240;47.418;0.700;2022-10-16T05:29:48;100125.99487304688;;;15.77;99.99
44531;BME280;30240;47.418;0.700;2022-10-16T05:32:14;100118.0908203125;;;15.69;99.99
44531;BME280;30240;47.418;0.700;2022-10-16T05:34:39;100118.0908203125;;;15.69;99.99
44531;BME280;30240;47.418;0.700;2022-10-16T05:37:04;100100.01831054688;;;15.61;99.99
44531;BME280;30240;47.418;0.700;2022-10-16T05:39:28;100099.3896484375;;;15.57;99.99
44531;BME280;30240;47.418;0.700;2022-10-16T05:41:54;100102.37426757812;;;15.51;99.99
44531;BME280;30240;47.418;0.700;2022-10-16T05:44:18;100115.0634765625;;;15.49;99.99
44531;BME280;30240;47.418;0.700;2022-10-16T05:46:45;100115.0634765625;;;15.49;99.99
44531;BME280;30240;47.418;0.700;2022-10-16T05:49:09;100112.86010742188;;;15.47;99.99
44531;BME280;30240;47.418;0.700;2022-10-16T05:51:33;100125.67138671875;;;15.6;99.99
44531;BME280;30240;47.418;0.700;2022-10-16T05:53:58;100123.291015625;;;15.54;99.99
44531;BME280;30240;47.418;0.700;2022-10-16T05:56:24;100117.77954101562;;;15.51;99.99
44531;BME280;30240;47.418;0.700;2022-10-16T05:58:48;100117.77954101562;;;15.51;99.99
44531;BME280;30240;47.418;0.700;2022-10-16T06:01:15;100118.43872070312;;;15.54;99.99
44531;BME280;30240;47.418;0.700;2022-10-16T06:03:39;100125.9033203125;;;15.46;99.99
44531;BME280;30240;47.418;0.700;2022-10-16T06:08:29;100132.95288085938;;;15.42;99.99
44531;BME280;30240;47.418;0.700;2022-10-16T06:11:01;100132.95288085938;;;15.42;99.99
44531;BME280;30240;47.418;0.700;2022-10-16T06:13:19;100140.49072265625;;;15.42;99.99
44531;BME280;30240;47.418;0.700;2022-10-16T06:15:44;100140.13061523438;;;15.51;99.99
44531;BME280;30240;47.418;0.700;2022-10-16T06:18:10;100136.24877929688;;;15.47;99.99
44531;BME280;30240;47.418;0.700;2022-10-16T06:20:34;100128.23486328125;;;15.53;99.99
44531;BME280;30240;47.418;0.700;2022-10-16T06:22:58;100128.23486328125;;;15.53;99.99
44531;BME280;30240;47.418;0.700;2022-10-16T06:25:24;100127.1240234375;;;15.5;99.99
44531;BME280;30240;47.418;0.700;2022-10-16T06:27:48;100134.04541015625;;;15.55;99.99
44531;BME280;30240;47.418;0.700;2022-10-16T06:30:14;100140.70434570312;;;15.55;99.99
44531;BME280;30240;47.418;0.700;2022-10-16T06:32:38;100139.9169921875;;;15.55;99.99
44531;BME280;30240;47.418;0.700;2022-10-16T06:35:04;100139.9169921875;;;15.55;99.99
44531;BME280;30240;47.418;0.700;2022-10-16T06:37:28;100142.24243164062;;;15.58;99.99
44531;BME280;30240;47.418;0.700;2022-10-16T06:39:53;100147.60131835938;;;15.55;99.99
44531;BME280;30240;47.418;0.700;2022-10-16T06:42:19;100165.49072265625;;;15.6;99.99
44531;BME280;30240;47.418;0.700;2022-10-16T06:44:44;100168.798828125;;;15.54;99.99
44531;BME280;30240;47.418;0.700;2022-10-16T06:47:09;100168.798828125;;;15.54;99.99
44531;BME280;30240;47.418;0.700;2022-10-16T06:49:33;100165.31372070312;;;15.58;99.99
44531;BME280;30240;47.418;0.700;2022-10-16T06:51:58;100172.88818359375;;;15.55;99.99
44531;BME280;30240;47.418;0.700;2022-10-16T06:56:50;100174.57885742188;;;15.65;99.99
44531;BME280;30240;47.418;0.700;2022-10-16T06:59:13;100181.41479492188;;;15.79;99.99
44531;BME280;30240;47.418;0.700;2022-10-16T07:01:38;100181.41479492188;;;15.79;99.99
44531;BME280;30240;47.418;0.700;2022-10-16T07:04:04;100165.98510742188;;;15.75;99.99
44531;BME280;30240;47.418;0.700;2022-10-16T07:06:32;100172.35717773438;;;15.91;99.99
44531;BME280;30240;47.418;0.700;2022-10-16T07:08:54;100171.07543945312;;;15.93;99.99
44531;BME280;30240;47.418;0.700;2022-10-16T07:11:21;100170.98388671875;;;15.78;99.99
44531;BME280;30240;47.418;0.700;2022-10-16T07:13:45;100170.98388671875;;;15.78;99.99
44531;BME280;30240;47.418;0.700;2022-10-16T07:16:10;100176.89208984375;;;16.2;99.99
44531;BME280;30240;47.418;0.700;2022-10-16T07:18:33;100189.9658203125;;;16.06;99.99
44531;BME280;30240;47.418;0.700;2022-10-16T07:21:03;100197.705078125;;;16.24;99.99
44531;BME280;30240;47.418;0.700;2022-10-16T07:23:24;100194.68994140625;;;16.59;99.99
44531;BME280;30240;47.418;0.700;2022-10-16T07:28:18;100194.19555664062;;;16.75;99.63
44531;BME280;30240;47.418;0.700;2022-10-16T07:30:39;100198.74267578125;;;16.65;99.99
44531;BME280;30240;47.418;0.700;2022-10-16T07:33:03;100194.921875;;;16.34;99.99
44531;BME280;30240;47.418;0.700;2022-10-16T07:35:29;100191.6259765625;;;16.21;99.99
44531;BME280;30240;47.418;0.700;2022-10-16T07:37:54;100191.6259765625;;;16.21;99.99
44531;BME280;30240;47.418;0.700;2022-10-16T07:40:18;100187.13989257812;;;16.1;99.99
44531;BME280;30240;47.418;0.700;2022-10-16T07:42:43;100195.4833984375;;;16.13;99.99
44531;BME280;30240;47.418;0.700;2022-10-16T07:45:09;100191.98608398438;;;16.37;99.99
44531;BME280;30240;47.418;0.700;2022-10-16T07:47:33;100193.115234375;;;16.61;99.99
44531;BME280;30240;47.418;0.700;2022-10-16T07:49:58;100193.115234375;;;16.61;99.99
44531;BME280;30240;47.418;0.700;2022-10-16T07:52:23;100192.15698242188;;;16.67;99.74
44531;BME280;30240;47.418;0.700;2022-10-16T07:54:49;100187.4267578125;;;16.73;99.99
44531;BME280;30240;47.418;0.700;2022-10-16T07:57:13;100183.92333984375;;;17.03;99.87
44531;BME280;30240;47.418;0.700;2022-10-16T07:59:38;100182.06176757812;;;16.52;99.99
44531;BME280;30240;47.418;0.700;2022-10-16T08:02:03;100182.06176757812;;;16.52;99.99
44531;BME280;30240;47.418;0.700;2022-10-16T08:04:29;100191.19262695312;;;16.64;99.99
44531;BME280;30240;47.418;0.700;2022-10-16T08:06:53;100194.970703125;;;16.58;99.99
44531;BME280;30240;47.418;0.700;2022-10-16T08:09:18;100192.68798828125;;;16.57;99.99
44531;BME280;30240;47.418;0.700;2022-10-16T08:11:43;100198.80981445312;;;17.0;99.99
44531;BME280;30240;47.418;0.700;2022-10-16T08:14:08;100198.80981445312;;;17.0;99.99
44531;BME280;30240;47.418;0.700;2022-10-16T08:16:33;100190.03295898438;;;17.17;98.74
44531;BME280;30240;47.418;0.700;2022-10-16T08:18:58;100184.4970703125;;;17.82;97.92
44531;BME280;30240;47.418;0.700;2022-10-16T08:21:23;100182.36694335938;;;17.7;97.14
44531;BME280;30240;47.418;0.700;2022-10-16T08:23:49;100183.82568359375;;;17.55;97.23
44531;BME280;30240;47.418;0.700;2022-10-16T08:26:13;100183.82568359375;;;17.55;97.23
44531;BME280;30240;47.418;0.700;2022-10-16T08:28:39;100188.720703125;;;17.7;97.23
44531;BME280;30240;47.418;0.700;2022-10-16T08:31:04;100187.65869140625;;;17.44;97.68
44531;BME280;30240;47.418;0.700;2022-10-16T08:33:28;100190.49072265625;;;17.62;98.14
44531;BME280;30240;47.418;0.700;2022-10-16T08:35:54;100185.96801757812;;;17.7;96.83
44531;BME280;30240;47.418;0.700;2022-10-16T08:38:18;100190.8935546875;;;17.23;98.18
44531;BME280;30240;47.418;0.700;2022-10-16T08:40:43;100190.8935546875;;;17.23;98.18
44531;BME280;30240;47.418;0.700;2022-10-16T08:43:24;100188.07983398438;;;17.82;97.03
44531;BME280;30240;47.418;0.700;2022-10-16T08:43:31;100188.07983398438;;;17.82;97.03
44531;BME280;30240;47.418;0.700;2022-10-16T08:43:39;100188.07983398438;;;17.82;97.03
44531;BME280;30240;47.418;0.700;2022-10-16T08:45:38;100169.29931640625;;;17.76;96.59
44531;BME280;30240;47.418;0.700;2022-10-16T08:48:05;100151.7578125;;;17.62;96.95
44531;BME280;30240;47.418;0.700;2022-10-16T08:50:26;100141.0888671875;;;18.17;96.48
44531;BME280;30240;47.418;0.700;2022-10-16T08:52:48;100141.0888671875;;;18.17;96.48
44531;BME280;30240;47.418;0.700;2022-10-16T08:55:21;100135.26611328125;;;18.31;95.32
44531;BME280;30240;47.418;0.700;2022-10-16T08:55:29;100135.26611328125;;;18.31;95.32
44531;BME280;30240;47.418;0.700;2022-10-16T08:57:38;100125.29907226562;;;18.29;94.95
44531;BME280;30240;47.418;0.700;2022-10-16T09:00:09;100110.09521484375;;;18.56;94.18
44531;BME280;30240;47.418;0.700;2022-10-16T09:00:13;100110.09521484375;;;18.56;94.18
44531;BME280;30240;47.418;0.700;2022-10-16T09:02:31;100079.76684570312;;;19.08;91.99
44531;BME280;30240;47.418;0.700;2022-10-16T09:05:01;100079.76684570312;;;19.08;91.99
44531;BME280;30240;47.418;0.700;2022-10-16T09:07:24;100074.84130859375;;;18.73;93.56
44531;BME280;30240;47.418;0.700;2022-10-16T09:09:52;100079.0771484375;;;18.11;95.28
44531;BME280;30240;47.418;0.700;2022-10-16T09:12:11;100068.00537109375;;;18.8;93.3
44531;BME280;30240;47.418;0.700;2022-10-16T09:14:48;100069.61059570312;;;18.94;92.55
44531;BME280;30240;47.418;0.700;2022-10-16T09:17:03;100069.61059570312;;;18.94;92.55
44531;BME280;30240;47.418;0.700;2022-10-16T09:19:29;100093.1396484375;;;18.63;93.44
44531;BME280;30240;47.418;0.700;2022-10-16T09:21:49;100105.60302734375;;;18.57;94.02
44531;BME280;30240;47.418;0.700;2022-10-16T09:24:15;100087.5244140625;;;19.18;93.04
44531;BME280;30240;47.418;0.700;2022-10-16T09:26:38;100088.59252929688;;;19.33;91.2
44531;BME280;30240;47.418;0.700;2022-10-16T09:29:03;100088.59252929688;;;19.33;91.2
44531;BME280;30240;47.418;0.700;2022-10-16T09:31:28;100109.65576171875;;;19.67;91.67
44531;BME280;30240;47.418;0.700;2022-10-16T09:33:57;100108.3740234375;;;19.52;91.2
44531;BME280;30240;47.418;0.700;2022-10-16T09:36:19;100113.20190429688;;;19.04;92.53
44531;BME280;30240;47.418;0.700;2022-10-16T09:38:43;100109.32006835938;;;19.29;90.59
44531;BME280;30240;47.418;0.700;2022-10-16T09:41:14;100109.32006835938;;;19.29;90.59
44531;BME280;30240;47.418;0.700;2022-10-16T09:43:36;100115.15502929688;;;19.54;91.89
44531;BME280;30240;47.418;0.700;2022-10-16T09:46:00;100119.83032226562;;;20.5;87.83
44531;BME280;30240;47.418;0.700;2022-10-16T09:48:25;100110.40649414062;;;21.1;86.07
44531;BME280;30240;47.418;0.700;2022-10-16T09:50:55;100112.27416992188;;;21.85;83.24
44531;BME280;30240;47.418;0.700;2022-10-16T09:53:14;100112.27416992188;;;21.85;83.24
44531;BME280;30240;47.418;0.700;2022-10-16T09:55:48;100113.25073242188;;;22.1;82.49
44531;BME280;30240;47.418;0.700;2022-10-16T09:58:13;100122.0458984375;;;21.31;84.12
44531;BME280;30240;47.418;0.700;2022-10-16T10:00:28;100133.43505859375;;;20.09;88.64
44531;BME280;30240;47.418;0.700;2022-10-16T10:02:54;100138.56201171875;;;20.54;87.67
44531;BME280;30240;47.418;0.700;2022-10-16T10:05:20;100125.81176757812;;;20.86;84.69
44531;BME280;30240;47.418;0.700;2022-10-16T10:07:44;100125.81176757812;;;20.86;84.69
44531;BME280;30240;47.418;0.700;2022-10-16T10:10:21;100130.48706054688;;;19.67;89.23
44531;BME280;30240;47.418;0.700;2022-10-16T10:12:35;100140.36865234375;;;20.91;87.21
44531;BME280;30240;47.418;0.700;2022-10-16T10:15:04;100123.291015625;;;22.07;82.23
44531;BME280;30240;47.418;0.700;2022-10-16T10:17:25;100120.03173828125;;;22.17;82.14
44531;BME280;30240;47.418;0.700;2022-10-16T10:19:51;100120.03173828125;;;22.17;82.14
44531;BME280;30240;47.418;0.700;2022-10-16T10:22:17;100113.5498046875;;;23.13;78.38
44531;BME280;30240;47.418;0.700;2022-10-16T10:24:39;100104.4921875;;;22.49;80.14
44531;BME280;30240;47.418;0.700;2022-10-16T10:27:08;100102.48413085938;;;22.22;79.99
44531;BME280;30240;47.418;0.700;2022-10-16T10:29:34;100114.12353515625;;;20.26;85.99
44531;BME280;30240;47.418;0.700;2022-10-16T10:29:41;100114.12353515625;;;20.26;85.99
44531;BME280;30240;47.418;0.700;2022-10-16T10:32:00;100114.12353515625;;;20.26;85.99
44531;BME280;30240;47.418;0.700;2022-10-16T10:32:06;100114.12353515625;;;20.26;85.99
44531;BME280;30240;47.418;0.700;2022-10-16T10:34:34;100103.466796875;;;21.57;83.52
44531;BME280;30240;47.418;0.700;2022-10-16T10:34:42;100103.466796875;;;21.57;83.52
44531;BME280;30240;47.418;0.700;2022-10-16T10:34:49;100103.466796875;;;21.57;83.52
44531;BME280;30240;47.418;0.700;2022-10-16T10:34:57;100103.466796875;;;21.57;83.52
44531;BME280;30240;47.418;0.700;2022-10-16T10:36:45;100085.12573242188;;;22.44;79.7
44531;BME280;30240;47.418;0.700;2022-10-16T10:36:51;100085.12573242188;;;22.44;79.7
44531;BME280;30240;47.418;0.700;2022-10-16T10:39:14;100079.5654296875;;;23.31;78.37
44531;BME280;30240;47.418;0.700;2022-10-16T10:42:04;100074.42016601562;;;24.04;74.88
44531;BME280;30240;47.418;0.700;2022-10-16T10:44:03;100074.42016601562;;;24.04;74.88
44531;BME280;30240;47.418;0.700;2022-10-16T10:46:32;100078.98559570312;;;23.02;79.62
44531;BME280;30240;47.418;0.700;2022-10-16T10:49:00;100092.37670898438;;;22.49;80.02
44531;BME280;30240;47.418;0.700;2022-10-16T10:51:23;100087.73193359375;;;23.51;77.0
44531;BME280;30240;47.418;0.700;2022-10-16T10:53:44;100097.24731445312;;;22.47;79.34